createdAt,value
2023-08-18T00:00:30.755Z,21.20
2023-08-18T00:02:58.953Z,21.10
2023-08-18T00:05:27.027Z,21.20
2023-08-18T00:07:56.247Z,21.20
2023-08-18T00:10:25.527Z,21.10
2023-08-18T00:12:55.032Z,21.10
2023-08-18T00:15:23.422Z,21.20
2023-08-18T00:17:51.586Z,21.10
2023-08-18T00:20:19.775Z,21.10
2023-08-18T00:22:47.818Z,21.10
2023-08-18T00:25:16.019Z,21.10
2023-08-18T00:27:44.117Z,21.10
2023-08-18T00:30:16.114Z,21.10
2023-08-18T00:32:44.243Z,21.10
2023-08-18T00:35:12.444Z,21.10
2023-08-18T00:37:42.112Z,21.10
2023-08-18T00:40:11.735Z,21.10
2023-08-18T00:42:39.785Z,21.10
2023-08-18T00:45:09.098Z,21.10
2023-08-18T00:47:40.062Z,21.10
2023-08-18T00:50:11.186Z,21.00
2023-08-18T00:52:40.003Z,21.00
2023-08-18T00:55:09.350Z,21.00
2023-08-18T00:57:39.012Z,21.00
2023-08-18T01:00:08.551Z,21.00
2023-08-18T01:02:38.417Z,21.00
2023-08-18T01:05:06.927Z,21.00
2023-08-18T01:07:35.049Z,21.00
2023-08-18T01:10:03.435Z,21.00
2023-08-18T01:12:40.158Z,21.00
2023-08-18T01:15:17.205Z,21.00
2023-08-18T01:17:52.670Z,21.00
2023-08-18T01:20:21.830Z,21.00
2023-08-18T01:22:55.309Z,21.00
2023-08-18T01:25:23.638Z,21.00
2023-08-18T01:27:52.760Z,21.00
2023-08-18T01:30:21.990Z,21.00
2023-08-18T01:32:58.304Z,21.00
2023-08-18T01:35:30.277Z,21.00
2023-08-18T01:38:00.738Z,21.00
2023-08-18T01:40:31.933Z,20.90
2023-08-18T01:43:00.855Z,20.90
2023-08-18T01:45:29.667Z,20.90
2023-08-18T01:47:57.658Z,20.90
2023-08-18T01:50:25.824Z,20.90
2023-08-18T01:52:53.828Z,20.90
2023-08-18T01:55:23.345Z,20.90
2023-08-18T01:57:51.488Z,20.80
2023-08-18T02:00:20.921Z,20.80
2023-08-18T02:02:49.709Z,20.80
2023-08-18T02:05:18.049Z,20.80
2023-08-18T02:07:46.113Z,20.80
2023-08-18T02:10:14.435Z,20.70
2023-08-18T02:12:43.826Z,20.70
2023-08-18T02:15:12.365Z,20.70
2023-08-18T02:17:40.737Z,20.70
2023-08-18T02:20:10.057Z,20.70
2023-08-18T02:22:38.062Z,20.70
2023-08-18T02:25:07.048Z,20.70
2023-08-18T02:27:35.030Z,20.60
2023-08-18T02:30:05.186Z,20.60
2023-08-18T02:32:33.832Z,20.60
2023-08-18T02:35:02.959Z,20.60
2023-08-18T02:37:31.328Z,20.60
2023-08-18T02:39:59.967Z,20.60
2023-08-18T02:42:27.986Z,20.60
2023-08-18T02:44:55.985Z,20.60
2023-08-18T02:47:25.427Z,20.60
2023-08-18T02:49:54.596Z,20.60
2023-08-18T02:52:23.265Z,20.50
2023-08-18T02:54:51.626Z,20.60
2023-08-18T02:57:19.791Z,20.50
2023-08-18T02:59:48.246Z,20.50
2023-08-18T03:02:17.756Z,20.50
2023-08-18T03:04:47.616Z,20.50
2023-08-18T03:07:18.732Z,20.50
2023-08-18T03:09:48.122Z,20.50
2023-08-18T03:12:17.355Z,20.50
2023-08-18T03:14:45.829Z,20.50
2023-08-18T03:17:14.093Z,20.40
2023-08-18T03:19:42.232Z,20.40
2023-08-18T03:22:12.589Z,20.40
2023-08-18T03:24:40.723Z,20.40
2023-08-18T03:27:08.828Z,20.30
2023-08-18T03:29:37.200Z,20.40
2023-08-18T03:32:07.221Z,20.30
2023-08-18T03:34:35.813Z,20.30
2023-08-18T03:37:06.423Z,20.30
2023-08-18T03:39:36.519Z,20.30
2023-08-18T03:42:05.332Z,20.30
2023-08-18T03:44:33.522Z,20.30
2023-08-18T03:47:03.304Z,20.30
2023-08-18T03:49:31.711Z,20.40
2023-08-18T03:51:59.759Z,20.40
2023-08-18T03:54:28.085Z,20.40
2023-08-18T03:56:57.412Z,20.30
2023-08-18T03:59:25.457Z,20.40
2023-08-18T04:01:53.680Z,20.30
2023-08-18T04:04:21.993Z,20.30
2023-08-18T04:06:50.172Z,20.30
2023-08-18T04:09:18.247Z,20.30
2023-08-18T04:11:46.399Z,20.30
2023-08-18T04:14:17.664Z,20.30
2023-08-18T04:16:46.967Z,20.30
2023-08-18T04:19:15.920Z,20.30
2023-08-18T04:21:44.201Z,20.20
2023-08-18T04:24:13.799Z,20.20
2023-08-18T04:26:41.924Z,20.20
2023-08-18T04:29:10.363Z,20.20
2023-08-18T04:31:40.080Z,20.20
2023-08-18T04:34:08.828Z,20.20
2023-08-18T04:36:38.614Z,20.20
2023-08-18T04:39:06.786Z,20.20
2023-08-18T04:41:35.099Z,20.20
2023-08-18T04:44:03.214Z,20.20
2023-08-18T04:46:31.642Z,20.20
2023-08-18T04:49:01.379Z,20.20
2023-08-18T04:51:30.347Z,20.20
2023-08-18T04:53:58.905Z,20.20
2023-08-18T04:56:27.115Z,20.10
2023-08-18T04:58:55.323Z,20.10
2023-08-18T05:01:23.629Z,20.10
2023-08-18T05:03:51.869Z,20.10
2023-08-18T05:06:21.432Z,20.10
2023-08-18T05:09:03.327Z,20.10
2023-08-18T05:11:31.919Z,20.20
2023-08-18T05:13:59.993Z,20.10
2023-08-18T05:16:28.146Z,20.10
2023-08-18T05:18:56.933Z,20.10
2023-08-18T05:21:26.553Z,20.10
2023-08-18T05:23:54.630Z,20.10
2023-08-18T05:26:22.816Z,20.00
2023-08-18T05:28:50.985Z,20.00
2023-08-18T05:31:19.051Z,20.00
2023-08-18T05:33:49.605Z,20.00
2023-08-18T05:36:18.970Z,20.00
2023-08-18T05:38:48.451Z,19.90
2023-08-18T05:41:16.912Z,19.90
2023-08-18T05:43:45.002Z,19.90
2023-08-18T05:46:13.098Z,19.90
2023-08-18T05:48:41.163Z,19.80
2023-08-18T05:51:09.184Z,19.80
2023-08-18T05:53:38.084Z,19.80
2023-08-18T05:56:07.983Z,19.80
2023-08-18T05:58:36.043Z,19.80
2023-08-18T06:01:04.888Z,19.80
2023-08-18T06:03:35.660Z,19.80
2023-08-18T06:06:06.920Z,19.80
2023-08-18T06:11:39.667Z,19.90
2023-08-18T06:14:17.911Z,19.90
2023-08-18T06:16:46.116Z,19.90
2023-08-18T06:19:14.423Z,19.90
2023-08-18T06:21:42.470Z,19.90
2023-08-18T06:24:10.572Z,19.90
2023-08-18T06:26:39.947Z,20.00
2023-08-18T06:29:07.972Z,20.00
2023-08-18T06:31:36.131Z,20.10
2023-08-18T06:34:04.175Z,20.10
2023-08-18T06:36:32.693Z,20.10
2023-08-18T06:39:01.139Z,20.10
2023-08-18T06:41:29.198Z,20.10
2023-08-18T06:43:58.563Z,20.10
2023-08-18T06:46:29.778Z,20.10
2023-08-18T06:48:57.744Z,20.10
2023-08-18T06:51:25.928Z,20.20
2023-08-18T06:53:54.444Z,20.10
2023-08-18T06:56:22.613Z,20.10
2023-08-18T06:58:51.090Z,20.10
2023-08-18T07:01:20.764Z,20.20
2023-08-18T07:03:49.555Z,20.20
2023-08-18T07:06:17.672Z,20.20
2023-08-18T07:08:45.718Z,20.20
2023-08-18T07:11:14.046Z,20.20
2023-08-18T07:13:44.013Z,20.20
2023-08-18T07:16:12.170Z,20.30
2023-08-18T07:18:41.584Z,20.20
2023-08-18T07:21:09.806Z,20.30
2023-08-18T07:23:37.898Z,20.30
2023-08-18T07:26:05.973Z,20.30
2023-08-18T07:28:34.091Z,20.30
2023-08-18T07:31:04.962Z,20.30
2023-08-18T07:33:33.714Z,20.30
2023-08-18T07:36:03.325Z,20.30
2023-08-18T07:38:35.039Z,20.30
2023-08-18T07:41:03.373Z,20.30
2023-08-18T07:43:31.539Z,20.30
2023-08-18T07:45:59.840Z,20.40
2023-08-18T07:48:28.200Z,20.40
2023-08-18T07:50:56.548Z,20.40
2023-08-18T07:53:27.344Z,20.40
2023-08-18T07:55:55.438Z,20.50
2023-08-18T07:58:23.761Z,20.50
2023-08-18T08:00:52.623Z,20.50
2023-08-18T08:03:21.085Z,20.60
2023-08-18T08:05:49.524Z,20.60
2023-08-18T08:08:17.809Z,20.70
2023-08-18T08:10:47.223Z,20.70
2023-08-18T08:13:16.465Z,20.80
2023-08-18T08:15:46.985Z,20.80
2023-08-18T08:18:16.996Z,20.90
2023-08-18T08:20:45.789Z,20.90
2023-08-18T08:23:13.840Z,20.90
2023-08-18T08:25:41.969Z,21.00
2023-08-18T08:28:11.298Z,21.00
2023-08-18T08:30:46.503Z,21.10
2023-08-18T08:33:39.320Z,21.10
2023-08-18T08:36:07.746Z,21.20
2023-08-18T08:38:35.953Z,21.10
2023-08-18T08:41:04.096Z,21.20
2023-08-18T08:43:33.539Z,21.20
2023-08-18T08:46:02.303Z,21.30
2023-08-18T08:48:34.746Z,21.30
2023-08-18T08:51:07.374Z,21.40
2023-08-18T08:53:40.949Z,21.40
2023-08-18T08:56:10.446Z,21.50
2023-08-18T08:58:40.956Z,21.60
2023-08-18T09:01:09.164Z,21.60
2023-08-18T09:03:38.046Z,21.60
2023-08-18T09:06:08.206Z,21.70
2023-08-18T09:08:36.562Z,21.70
2023-08-18T09:11:04.747Z,21.70
2023-08-18T09:13:32.866Z,21.80
2023-08-18T09:16:05.312Z,21.80
2023-08-18T09:18:35.047Z,21.80
2023-08-18T09:21:05.510Z,21.80
2023-08-18T09:23:34.060Z,21.80
2023-08-18T09:26:07.879Z,21.80
2023-08-18T09:28:36.333Z,21.90
2023-08-18T09:31:05.905Z,21.90
2023-08-18T09:33:35.263Z,21.90
2023-08-18T09:36:03.797Z,21.90
2023-08-18T09:38:41.884Z,22.00
2023-08-18T09:41:10.276Z,21.90
2023-08-18T09:43:38.597Z,22.00
2023-08-18T09:48:39.188Z,22.10
2023-08-18T09:51:09.610Z,22.10
2023-08-18T09:53:40.444Z,22.20
2023-08-18T09:56:14.561Z,22.20
2023-08-18T09:58:48.528Z,22.30
2023-08-18T10:01:19.450Z,22.30
2023-08-18T10:03:49.403Z,22.30
2023-08-18T10:06:20.565Z,22.40
2023-08-18T10:08:49.995Z,22.40
2023-08-18T10:11:18.020Z,22.40
2023-08-18T10:13:46.692Z,22.40
2023-08-18T10:16:31.593Z,22.50
2023-08-18T10:19:00.113Z,22.50
2023-08-18T10:21:29.129Z,22.50
2023-08-18T10:23:57.123Z,22.60
2023-08-18T10:26:26.014Z,22.60
2023-08-18T10:28:55.716Z,22.60
2023-08-18T10:31:24.203Z,22.60
2023-08-18T10:33:56.588Z,22.70
2023-08-18T10:36:29.806Z,22.80
2023-08-18T10:38:58.072Z,22.80
2023-08-18T10:41:27.230Z,22.90
2023-08-18T10:43:57.374Z,22.90
2023-08-18T10:46:35.234Z,23.00
2023-08-18T10:49:07.313Z,23.00
2023-08-18T10:51:36.307Z,23.10
2023-08-18T10:54:04.863Z,23.10
2023-08-18T10:56:32.890Z,23.10
2023-08-18T10:59:00.875Z,23.10
2023-08-18T11:01:29.688Z,23.10
2023-08-18T11:03:58.473Z,23.20
2023-08-18T11:06:28.319Z,23.20
2023-08-18T11:08:56.598Z,23.20
2023-08-18T11:11:24.702Z,23.20
2023-08-18T11:13:54.708Z,23.30
2023-08-18T11:16:24.506Z,23.30
2023-08-18T11:18:53.164Z,23.30
2023-08-18T11:21:21.310Z,23.40
2023-08-18T11:23:51.137Z,23.40
2023-08-18T11:26:19.394Z,23.40
2023-08-18T11:28:48.002Z,23.40
2023-08-18T11:31:16.524Z,23.40
2023-08-18T11:33:44.995Z,23.50
2023-08-18T11:36:13.656Z,23.50
2023-08-18T11:38:41.887Z,23.50
2023-08-18T11:41:11.502Z,23.60
2023-08-18T11:43:39.988Z,23.70
2023-08-18T11:46:08.813Z,23.90
2023-08-18T11:48:38.316Z,23.90
2023-08-18T11:51:06.330Z,23.90
2023-08-18T11:53:36.169Z,24.00
2023-08-18T11:56:04.868Z,24.00
2023-08-18T11:58:35.859Z,24.10
2023-08-18T12:01:23.240Z,24.10
2023-08-18T12:04:12.952Z,24.10
2023-08-18T12:06:45.967Z,24.20
2023-08-18T12:09:14.135Z,24.30
2023-08-18T12:11:42.327Z,24.30
2023-08-18T12:14:12.089Z,24.30
2023-08-18T12:16:40.146Z,24.40
2023-08-18T12:19:08.290Z,24.50
2023-08-18T12:21:38.524Z,24.50
2023-08-18T12:24:08.980Z,24.60
2023-08-18T12:26:38.725Z,24.70
2023-08-18T12:29:07.090Z,24.80
2023-08-18T12:31:37.579Z,24.80
2023-08-18T12:34:06.972Z,24.90
2023-08-18T12:36:37.748Z,24.90
2023-08-18T12:39:08.128Z,24.90
2023-08-18T12:41:36.126Z,25.00
2023-08-18T12:44:06.391Z,25.10
2023-08-18T12:46:36.334Z,25.10
2023-08-18T12:49:07.060Z,25.10
2023-08-18T12:51:35.175Z,25.10
2023-08-18T12:54:03.306Z,25.20
2023-08-18T12:56:31.380Z,25.20
2023-08-18T12:58:59.464Z,25.30
2023-08-18T13:01:27.859Z,25.30
2023-08-18T13:03:57.442Z,25.30
2023-08-18T13:06:25.459Z,25.40
2023-08-18T13:08:53.492Z,25.50
2023-08-18T13:11:21.602Z,25.60
2023-08-18T13:13:49.588Z,25.60
2023-08-18T13:16:17.770Z,25.70
2023-08-18T13:18:45.845Z,25.80
2023-08-18T13:21:17.830Z,25.80
2023-08-18T13:23:46.035Z,25.90
2023-08-18T13:26:14.245Z,26.00
2023-08-18T13:28:42.344Z,26.10
2023-08-18T13:31:10.489Z,26.20
2023-08-18T13:33:38.610Z,26.30
2023-08-18T13:36:07.126Z,26.40
2023-08-18T13:38:36.517Z,26.50
2023-08-18T13:41:04.689Z,26.60
2023-08-18T13:43:32.742Z,26.70
2023-08-18T13:46:00.830Z,26.80
2023-08-18T13:48:28.960Z,26.80
2023-08-18T13:50:57.151Z,26.90
2023-08-18T13:53:27.991Z,27.00
2023-08-18T13:55:57.486Z,27.00
2023-08-18T13:58:25.596Z,27.00
2023-08-18T14:00:53.586Z,27.10
2023-08-18T14:03:21.704Z,27.10
2023-08-18T14:05:49.757Z,27.20
2023-08-18T14:08:17.753Z,27.20
2023-08-18T14:10:45.799Z,27.30
2023-08-18T14:13:15.255Z,27.30
2023-08-18T14:15:43.778Z,27.40
2023-08-18T14:18:13.738Z,27.50
2023-08-18T14:20:41.774Z,27.60
2023-08-18T14:23:09.931Z,27.60
2023-08-18T14:25:40.140Z,27.60
2023-08-18T14:28:08.405Z,27.70
2023-08-18T14:30:38.027Z,27.80
2023-08-18T14:33:06.367Z,27.80
2023-08-18T14:35:36.844Z,28.00
2023-08-18T14:38:05.566Z,28.00
2023-08-18T14:40:33.664Z,28.00
2023-08-18T14:43:15.243Z,28.10
2023-08-18T14:45:46.651Z,27.90
2023-08-18T14:48:14.860Z,27.90
2023-08-18T14:50:43.406Z,27.90
2023-08-18T14:53:12.831Z,27.80
2023-08-18T14:55:41.106Z,27.80
2023-08-18T14:58:09.112Z,27.70
2023-08-18T15:00:38.261Z,27.60
2023-08-18T15:03:08.015Z,27.60
2023-08-18T15:05:36.176Z,27.50
2023-08-18T15:08:04.992Z,27.50
2023-08-18T15:10:33.003Z,27.40
2023-08-18T15:13:01.034Z,27.30
2023-08-18T15:15:29.075Z,27.30
2023-08-18T15:17:57.052Z,27.20
2023-08-18T15:20:26.528Z,27.20
2023-08-18T15:22:54.497Z,27.20
2023-08-18T15:25:23.086Z,27.10
2023-08-18T15:27:51.104Z,27.10
2023-08-18T15:30:19.244Z,27.10
2023-08-18T15:32:47.267Z,27.10
2023-08-18T15:35:15.688Z,27.10
2023-08-18T15:37:45.050Z,27.10
2023-08-18T15:40:13.482Z,27.10
2023-08-18T15:42:41.495Z,27.10
2023-08-18T15:45:10.427Z,27.00
2023-08-18T15:47:39.655Z,27.00
2023-08-18T15:50:08.196Z,26.90
2023-08-18T15:52:36.297Z,26.90
2023-08-18T15:55:06.301Z,26.90
2023-08-18T15:57:34.492Z,26.80
2023-08-18T16:00:04.429Z,26.90
2023-08-18T16:02:32.741Z,26.80
2023-08-18T16:05:00.881Z,26.80
2023-08-18T16:07:29.253Z,26.80
2023-08-18T16:10:01.426Z,26.80
2023-08-18T16:12:30.762Z,26.80
2023-08-18T16:15:27.560Z,26.90
2023-08-18T16:17:46.896Z,26.90
2023-08-18T16:20:15.369Z,27.00
2023-08-18T16:22:43.780Z,27.00
2023-08-18T16:25:13.025Z,27.20
2023-08-18T16:27:42.421Z,27.30
2023-08-18T16:30:11.283Z,27.50
2023-08-18T16:32:39.563Z,27.70
2023-08-18T16:35:08.360Z,27.90
2023-08-18T16:37:36.815Z,28.00
2023-08-18T16:40:05.333Z,28.20
2023-08-18T16:42:33.493Z,28.40
2023-08-18T16:45:02.886Z,28.50
2023-08-18T16:47:31.093Z,28.70
2023-08-18T16:49:59.335Z,28.90
2023-08-18T16:52:27.440Z,29.10
2023-08-18T16:54:55.625Z,29.20
2023-08-18T16:57:23.577Z,29.40
2023-08-18T16:59:51.577Z,29.40
2023-08-18T17:02:21.024Z,29.40
2023-08-18T17:04:49.119Z,29.40
2023-08-18T17:07:17.173Z,29.30
2023-08-18T17:09:47.271Z,29.10
2023-08-18T17:12:15.330Z,29.00
2023-08-18T17:14:43.312Z,28.80
2023-08-18T17:17:12.449Z,28.70
2023-08-18T17:19:41.816Z,28.60
2023-08-18T17:22:09.779Z,28.50
2023-08-18T17:24:37.790Z,28.40
2023-08-18T17:27:08.643Z,28.30
2023-08-18T17:29:37.538Z,28.20
2023-08-18T17:32:06.422Z,28.10
2023-08-18T17:34:34.673Z,28.00
2023-08-18T17:37:04.598Z,27.90
2023-08-18T17:39:32.638Z,27.80
2023-08-18T17:42:02.172Z,27.70
2023-08-18T17:44:30.366Z,27.60
2023-08-18T17:46:59.210Z,27.60
2023-08-18T17:49:27.214Z,27.50
2023-08-18T17:51:55.290Z,27.50
2023-08-18T17:54:24.797Z,27.40
2023-08-18T17:56:53.004Z,27.40
2023-08-18T17:59:21.121Z,27.30
2023-08-18T18:01:51.503Z,27.20
2023-08-18T18:04:19.850Z,27.10
2023-08-18T18:07:12.072Z,27.10
2023-08-18T18:09:47.988Z,27.10
2023-08-18T18:12:18.905Z,27.00
2023-08-18T18:14:49.833Z,27.00
2023-08-18T18:17:21.122Z,26.90
2023-08-18T18:19:50.893Z,26.90
2023-08-18T18:22:20.883Z,26.80
2023-08-18T18:25:13.452Z,26.80
2023-08-18T18:27:44.967Z,26.80
2023-08-18T18:30:14.727Z,26.70
2023-08-18T18:32:42.990Z,26.70
2023-08-18T18:35:12.579Z,26.70
2023-08-18T18:37:41.673Z,26.70
2023-08-18T18:40:23.770Z,26.70
2023-08-18T18:42:52.524Z,26.70
2023-08-18T18:45:23.435Z,26.60
2023-08-18T18:47:51.441Z,26.60
2023-08-18T18:50:41.778Z,26.60
2023-08-18T18:53:13.353Z,26.60
2023-08-18T18:55:47.780Z,26.60
2023-08-18T18:58:38.790Z,26.60
2023-08-18T19:01:08.965Z,26.50
2023-08-18T19:03:40.033Z,26.50
2023-08-18T19:06:30.889Z,26.50
2023-08-18T19:08:58.958Z,26.50
2023-08-18T19:11:51.888Z,26.50
2023-08-18T19:14:23.203Z,26.40
2023-08-18T19:16:52.596Z,26.40
2023-08-18T19:19:22.785Z,26.40
2023-08-18T19:21:51.417Z,26.40
2023-08-18T19:24:20.017Z,26.40
2023-08-18T19:26:58.493Z,26.40
2023-08-18T19:29:27.273Z,26.30
2023-08-18T19:32:05.849Z,26.30
2023-08-18T19:34:35.590Z,26.30
2023-08-18T19:37:05.047Z,26.30
2023-08-18T19:39:33.947Z,26.30
2023-08-18T19:42:05.538Z,26.30
2023-08-18T19:44:35.046Z,26.30
2023-08-18T19:47:04.583Z,26.20
2023-08-18T19:49:35.897Z,26.20
2023-08-18T19:52:04.735Z,26.20
2023-08-18T19:54:36.571Z,26.10
2023-08-18T19:57:28.308Z,26.10
2023-08-18T20:00:03.022Z,26.10
2023-08-18T20:02:33.121Z,26.10
2023-08-18T20:05:02.002Z,26.00
2023-08-18T20:07:34.423Z,26.00
2023-08-18T20:10:06.440Z,26.00
2023-08-18T20:12:39.000Z,26.00
2023-08-18T20:15:09.544Z,26.00
2023-08-18T20:17:45.656Z,26.00
2023-08-18T20:20:16.687Z,26.00
2023-08-18T20:22:47.619Z,26.00
2023-08-18T20:25:25.742Z,25.90
2023-08-18T20:27:57.105Z,25.90
2023-08-18T20:30:33.396Z,25.90
2023-08-18T20:33:01.698Z,25.90
2023-08-18T20:35:35.639Z,25.80
2023-08-18T20:38:27.544Z,25.80
2023-08-18T20:41:02.634Z,25.80
2023-08-18T20:43:37.963Z,25.80
2023-08-18T20:46:06.595Z,25.80
2023-08-18T20:48:37.612Z,25.80
2023-08-18T20:51:26.720Z,25.80
2023-08-18T20:53:55.159Z,25.80
2023-08-18T20:56:25.840Z,25.80
2023-08-18T20:59:00.309Z,25.70
2023-08-18T21:01:30.992Z,25.70
2023-08-18T21:04:19.731Z,25.70
2023-08-18T21:07:28.390Z,25.70
2023-08-18T21:10:38.224Z,25.60
2023-08-18T21:13:07.864Z,25.60
2023-08-18T21:15:38.838Z,25.60
2023-08-18T21:18:09.333Z,25.60
2023-08-18T21:20:39.174Z,25.60
2023-08-18T21:23:30.222Z,25.50
2023-08-18T21:25:59.114Z,25.60
2023-08-18T21:28:29.534Z,25.60
2023-08-18T21:31:21.231Z,25.50
2023-08-18T21:33:49.428Z,25.50
2023-08-18T21:36:25.627Z,25.50
2023-08-18T21:38:54.413Z,25.50
2023-08-18T21:41:24.292Z,25.50
2023-08-18T21:43:56.347Z,25.50
2023-08-18T21:46:48.343Z,25.50
2023-08-18T21:49:19.120Z,25.50
2023-08-18T21:51:50.656Z,25.50
2023-08-18T21:54:22.290Z,25.40
2023-08-18T21:57:14.686Z,25.40
2023-08-18T21:59:45.023Z,25.40
2023-08-18T22:05:02.675Z,25.40
2023-08-18T22:07:36.074Z,25.40
2023-08-18T22:10:06.260Z,25.40
2023-08-18T22:12:37.666Z,25.40
2023-08-18T22:15:15.427Z,25.40
2023-08-18T22:17:50.633Z,25.40
2023-08-18T22:20:24.751Z,25.40
2023-08-18T22:22:55.544Z,25.40
2023-08-18T22:25:26.244Z,25.30
2023-08-18T22:27:57.074Z,25.30
2023-08-18T22:30:27.475Z,25.30
2023-08-18T22:33:13.696Z,25.40
2023-08-18T22:35:42.348Z,25.30
2023-08-18T22:38:14.400Z,25.30
2023-08-18T22:40:45.741Z,25.30
2023-08-18T22:43:18.284Z,25.30
2023-08-18T22:45:49.365Z,25.30
2023-08-18T22:48:25.739Z,25.30
2023-08-18T22:50:54.369Z,25.40
2023-08-18T22:53:23.831Z,25.40
2023-08-18T22:55:55.946Z,25.40
2023-08-18T22:58:45.282Z,25.30
2023-08-18T23:01:14.297Z,25.30
2023-08-18T23:03:44.149Z,25.30
2023-08-18T23:06:32.357Z,25.30
2023-08-18T23:09:27.583Z,25.30
2023-08-18T23:11:56.570Z,25.30
2023-08-18T23:14:27.621Z,25.30
2023-08-18T23:17:17.478Z,25.30
2023-08-18T23:19:48.917Z,25.30
2023-08-18T23:22:19.815Z,25.30
2023-08-18T23:25:08.610Z,25.30
2023-08-18T23:27:42.458Z,25.30
2023-08-18T23:30:11.310Z,25.30
2023-08-18T23:32:42.970Z,25.30
2023-08-18T23:35:14.083Z,25.30
2023-08-18T23:38:03.219Z,25.20
2023-08-18T23:40:32.345Z,25.30
2023-08-18T23:43:01.483Z,25.20
2023-08-18T23:45:32.777Z,25.20
2023-08-18T23:48:00.824Z,25.20
2023-08-18T23:50:51.849Z,25.20
2023-08-18T23:53:28.862Z,25.20
2023-08-18T23:56:06.082Z,25.20
2023-08-18T23:58:34.530Z,25.20
